Time;durP1;ratioP1;P1;durP2;ratioP2;P2;SDS_P1;SDS_P2;PMS_P1;PMS_P2;Temp;Humidity;BMP_temperature;BMP_pressure;BME280_temperature;BME280_humidity;BME280_pressure;Samples;Min_cycle;Max_cycle;Signal;HPM_P1;HPM_P2
2021/01/27 00:01:51;;;;;;;39.92;21.75;;;0.40;99.90;;;;;;5027558;28;20371;-88
2021/01/27 00:04:43;;;;;;;41.22;23.52;;;0.40;99.90;;;;;;5072912;28;20382;-87
2021/01/27 00:07:22;;;;;;;41.37;21.62;;;0.50;99.90;;;;;;5079118;28;20080;-88
2021/01/27 00:10:14;;;;;;;43.75;23.87;;;0.40;99.90;;;;;;5046086;28;20088;-88
2021/01/27 00:12:53;;;;;;;39.10;22.75;;;0.40;99.90;;;;;;5020207;28;20549;-87
2021/01/27 00:15:44;;;;;;;40.78;22.80;;;0.40;99.90;;;;;;5039331;28;20092;-88
2021/01/27 00:18:23;;;;;;;40.80;21.70;;;0.40;99.90;;;;;;5049152;28;20510;-87
2021/01/27 00:21:14;;;;;;;43.13;23.60;;;0.40;99.90;;;;;;5048531;28;20164;-87
2021/01/27 00:23:53;;;;;;;43.63;24.80;;;0.50;99.90;;;;;;5076144;28;20167;-87
2021/01/27 00:26:46;;;;;;;43.70;24.63;;;0.50;99.90;;;;;;5048530;28;20100;-87
2021/01/27 00:29:26;;;;;;;42.90;23.33;;;0.50;99.90;;;;;;5075379;28;20171;-87
2021/01/27 00:32:19;;;;;;;37.17;21.85;;;0.50;99.90;;;;;;5049921;28;20437;-87
2021/01/27 00:34:57;;;;;;;40.42;22.92;;;0.50;99.90;;;;;;5015373;28;20365;-88
2021/01/27 00:37:48;;;;;;;39.88;21.90;;;0.50;99.90;;;;;;5058619;28;20145;-88
2021/01/27 00:40:27;;;;;;;44.60;25.67;;;0.50;99.90;;;;;;5087167;28;20087;-87
2021/01/27 00:43:18;;;;;;;40.40;22.55;;;0.50;99.90;;;;;;5031088;28;20088;-89
2021/01/27 00:45:57;;;;;;;44.35;24.27;;;0.50;99.90;;;;;;5047720;28;20575;-87
2021/01/27 00:48:48;;;;;;;44.60;22.90;;;0.50;99.90;;;;;;5072641;28;20111;-88
2021/01/27 00:51:42;;;;;;;42.78;24.58;;;0.50;99.90;;;;;;5063321;28;20089;-88
2021/01/27 00:54:34;;;;;;;45.28;22.95;;;0.40;99.90;;;;;;5024946;28;20108;-88
2021/01/27 00:57:25;;;;;;;43.05;23.67;;;0.50;99.90;;;;;;5003714;28;20100;-89
2021/01/27 01:00:26;;;;;;;42.20;23.12;;;0.50;99.90;;;;;;5031224;28;20489;-87
2021/01/27 01:03:17;;;;;;;43.87;23.98;;;0.50;99.90;;;;;;5042172;28;20170;-88
2021/01/27 01:06:09;;;;;;;39.22;21.87;;;0.40;99.90;;;;;;5089542;28;20095;-88
2021/01/27 01:08:48;;;;;;;41.03;22.37;;;0.40;99.90;;;;;;5040958;28;20470;-87
2021/01/27 01:11:39;;;;;;;40.33;22.60;;;0.50;99.90;;;;;;5060217;28;20136;-87
2021/01/27 01:14:17;;;;;;;36.90;22.85;;;0.50;99.90;;;;;;5009651;28;20513;-87
2021/01/27 01:17:11;;;;;;;42.22;22.80;;;0.40;99.90;;;;;;5034977;28;20164;-87
2021/01/27 01:19:49;;;;;;;42.22;23.80;;;0.50;99.90;;;;;;5033552;28;20103;-87
2021/01/27 01:22:43;;;;;;;52.88;25.85;;;0.40;99.90;;;;;;5033539;28;20087;-87
2021/01/27 01:25:24;;;;;;;50.12;25.88;;;0.40;99.90;;;;;;5036917;28;20356;-87
2021/01/27 01:28:15;;;;;;;48.03;24.52;;;0.40;99.90;;;;;;5069205;28;20093;-88
2021/01/27 01:30:54;;;;;;;45.25;23.75;;;0.30;99.90;;;;;;5036574;28;20188;-85
2021/01/27 01:33:49;;;;;;;42.90;23.00;;;0.40;99.90;;;;;;5032531;28;20093;-84
2021/01/27 01:36:28;;;;;;;45.35;24.23;;;0.40;99.90;;;;;;5030893;28;20105;-84
2021/01/27 01:39:20;;;;;;;39.03;21.83;;;0.40;99.90;;;;;;5039807;28;20470;-85
2021/01/27 01:42:02;;;;;;;38.70;22.23;;;0.40;99.90;;;;;;5092727;28;20348;-84
2021/01/27 01:44:53;;;;;;;43.03;23.05;;;0.40;99.90;;;;;;5026122;28;20159;-85
2021/01/27 01:47:32;;;;;;;41.10;22.25;;;0.30;99.90;;;;;;5092562;28;20351;-84
2021/01/27 01:50:24;;;;;;;41.55;22.77;;;0.40;99.90;;;;;;5056376;28;20501;-85
2021/01/27 01:53:03;;;;;;;38.53;21.55;;;0.40;99.90;;;;;;5064263;28;20545;-85
2021/01/27 01:55:58;;;;;;;38.92;22.65;;;0.40;99.90;;;;;;4744712;28;20103;-85
2021/01/27 01:58:38;;;;;;;43.10;23.60;;;0.40;99.90;;;;;;5058321;28;20139;-85
2021/01/27 02:01:30;;;;;;;37.17;22.77;;;0.40;99.90;;;;;;5077839;28;20144;-83
2021/01/27 02:04:24;;;;;;;38.70;21.37;;;0.40;99.90;;;;;;5061794;28;20132;-84
2021/01/27 02:07:18;;;;;;;41.47;22.35;;;0.40;99.90;;;;;;5073206;28;20140;-84
2021/01/27 02:09:56;;;;;;;36.30;21.45;;;0.40;99.90;;;;;;5095040;28;20132;-84
2021/01/27 02:13:10;;;;;;;38.90;19.83;;;0.30;99.90;;;;;;5025372;28;20089;-84
2021/01/27 02:16:01;;;;;;;40.83;20.15;;;0.30;99.90;;;;;;5055604;28;20477;-84
2021/01/27 02:19:10;;;;;;;37.53;20.42;;;0.30;99.90;;;;;;5044351;28;20115;-85
2021/01/27 02:22:11;;;;;;;35.17;20.20;;;0.30;99.90;;;;;;5081421;28;20100;-84
2021/01/27 02:25:19;;;;;;;35.80;17.92;;;0.30;99.90;;;;;;5076190;28;20084;-84
2021/01/27 02:28:00;;;;;;;33.63;18.75;;;0.30;99.90;;;;;;5056163;28;20099;-85
2021/01/27 02:31:05;;;;;;;37.58;18.17;;;0.30;99.90;;;;;;5031514;28;20395;-85
2021/01/27 02:34:03;;;;;;;35.38;18.67;;;0.30;99.90;;;;;;5058358;28;20092;-85
2021/01/27 02:37:11;;;;;;;38.20;18.77;;;0.30;99.90;;;;;;5026660;28;20497;-85
2021/01/27 02:39:53;;;;;;;34.08;18.27;;;0.20;99.90;;;;;;5029858;28;20148;-85
2021/01/27 02:42:58;;;;;;;32.63;16.65;;;0.20;99.90;;;;;;5043866;28;20115;-85
2021/01/27 02:45:41;;;;;;;31.25;18.45;;;0.20;99.90;;;;;;5029155;28;20085;-85
2021/01/27 02:48:59;;;;;;;33.03;18.30;;;0.20;99.90;;;;;;5035756;28;20085;-86
2021/01/27 02:52:00;;;;;;;31.83;17.27;;;0.20;99.90;;;;;;4995817;28;20093;-85
2021/01/27 02:55:05;;;;;;;30.80;17.55;;;0.20;99.90;;;;;;5035572;28;20097;-85
2021/01/27 02:57:47;;;;;;;33.38;17.08;;;0.20;99.90;;;;;;5076378;28;20552;-85
2021/01/27 03:00:43;;;;;;;30.25;16.85;;;0.30;99.90;;;;;;5038903;28;20093;-85
2021/01/27 03:03:42;;;;;;;31.60;16.73;;;0.20;99.90;;;;;;5068306;28;20482;-85
2021/01/27 03:06:33;;;;;;;28.10;16.30;;;0.20;99.90;;;;;;5029110;28;20186;-85
2021/01/27 03:09:28;;;;;;;31.42;16.62;;;0.20;99.90;;;;;;5054361;28;20089;-85
2021/01/27 03:12:18;;;;;;;28.77;15.75;;;0.30;99.90;;;;;;5031700;28;20517;-85
2021/01/27 03:14:57;;;;;;;29.67;16.25;;;0.20;99.90;;;;;;5066532;28;20093;-85
2021/01/27 03:17:58;;;;;;;23.75;13.20;;;0.20;99.90;;;;;;5071607;28;20092;-85
2021/01/27 03:20:39;;;;;;;26.70;14.65;;;0.20;99.90;;;;;;5077719;28;20185;-85
2021/01/27 03:23:44;;;;;;;25.42;13.07;;;0.20;99.90;;;;;;5042261;28;20501;-85
2021/01/27 03:26:52;;;;;;;24.08;13.43;;;0.10;99.90;;;;;;5044075;28;20088;-85
2021/01/27 03:29:52;;;;;;;20.23;11.10;;;0.10;99.90;;;;;;5091923;28;20085;-85
2021/01/27 03:32:33;;;;;;;20.80;11.48;;;0.10;99.90;;;;;;5063707;28;20195;-85
2021/01/27 03:35:47;;;;;;;20.85;11.80;;;0.00;99.90;;;;;;5057813;28;20390;-85
2021/01/27 03:38:29;;;;;;;21.23;11.65;;;0.00;99.90;;;;;;5015731;28;20837;-85
2021/01/27 03:41:23;;;;;;;25.20;13.93;;;0.00;99.90;;;;;;4999350;28;20097;-85
2021/01/27 03:44:08;;;;;;;30.62;16.58;;;-0.10;99.90;;;;;;5096128;28;20103;-85
2021/01/27 03:47:07;;;;;;;29.90;15.68;;;0.00;99.90;;;;;;5042099;28;20097;-85
2021/01/27 03:50:19;;;;;;;28.30;14.35;;;0.00;99.90;;;;;;5078264;28;20103;-85
2021/01/27 03:53:16;;;;;;;27.62;15.15;;;0.00;99.90;;;;;;5058123;28;20170;-84
2021/01/27 03:56:23;;;;;;;32.88;16.85;;;0.00;99.90;;;;;;5023958;28;20089;-85
2021/01/27 03:59:15;;;;;;;22.83;13.65;;;-0.10;99.90;;;;;;5040412;28;20093;-85
2021/01/27 04:01:55;;;;;;;26.12;14.05;;;-0.10;99.90;;;;;;5063442;28;20112;-85
2021/01/27 04:04:47;;;;;;;26.20;11.85;;;-0.10;99.90;;;;;;5075196;28;20197;-85
2021/01/27 04:07:26;;;;;;;21.65;11.43;;;-0.10;99.90;;;;;;5054333;28;20100;-85
2021/01/27 04:10:18;;;;;;;23.05;12.02;;;-0.10;99.90;;;;;;5042589;28;20088;-85
2021/01/27 04:12:57;;;;;;;22.35;12.07;;;-0.10;99.90;;;;;;5074151;28;20136;-85
2021/01/27 04:15:51;;;;;;;20.05;10.63;;;-0.10;99.90;;;;;;5039260;28;20108;-84
2021/01/27 04:18:30;;;;;;;23.33;12.10;;;-0.10;99.90;;;;;;5100614;28;20112;-85
2021/01/27 04:21:21;;;;;;;23.10;12.88;;;-0.10;99.90;;;;;;5037899;28;20177;-87
2021/01/27 04:24:00;;;;;;;21.20;10.93;;;-0.20;99.90;;;;;;5080443;28;20088;-87
2021/01/27 04:26:52;;;;;;;25.10;12.05;;;-0.20;99.90;;;;;;5025135;28;20092;-87
2021/01/27 04:29:30;;;;;;;22.60;11.45;;;-0.30;99.90;;;;;;5125632;27;20103;-88
2021/01/27 04:32:24;;;;;;;19.77;10.90;;;-0.30;99.90;;;;;;5067731;28;20084;-86
2021/01/27 04:35:05;;;;;;;22.85;10.63;;;-0.30;99.90;;;;;;5065188;28;20087;-87
2021/01/27 04:38:03;;;;;;;21.98;10.40;;;-0.40;99.90;;;;;;5034957;28;20494;-87
2021/01/27 04:40:43;;;;;;;20.77;11.05;;;-0.40;99.90;;;;;;5050970;28;20101;-86
2021/01/27 04:43:34;;;;;;;16.92;9.70;;;-0.40;99.90;;;;;;5026526;28;20096;-87
2021/01/27 04:46:33;;;;;;;18.48;10.45;;;-0.40;99.90;;;;;;5076249;28;20563;-87
2021/01/27 04:49:27;;;;;;;21.08;10.25;;;-0.40;99.90;;;;;;5052762;28;20081;-86
2021/01/27 04:52:36;;;;;;;16.15;8.73;;;-0.30;99.90;;;;;;5082678;28;20500;-86
2021/01/27 04:55:48;;;;;;;19.40;9.25;;;-0.30;99.90;;;;;;5100376;28;20480;-86
2021/01/27 04:58:42;;;;;;;17.25;8.02;;;-0.30;99.90;;;;;;5081070;28;20147;-87
2021/01/27 05:01:39;;;;;;;16.13;8.57;;;-0.30;99.90;;;;;;5070598;28;20375;-86
2021/01/27 05:04:26;;;;;;;17.80;9.80;;;-0.30;99.90;;;;;;5076324;28;20107;-87
2021/01/27 05:07:29;;;;;;;18.55;8.75;;;-0.40;99.90;;;;;;5072576;28;20149;-86
2021/01/27 05:10:09;;;;;;;15.82;7.85;;;-0.40;99.90;;;;;;5055198;28;20179;-85
2021/01/27 05:13:07;;;;;;;13.93;7.32;;;-0.40;99.90;;;;;;5063144;28;20084;-84
2021/01/27 05:15:47;;;;;;;10.52;6.45;;;-0.40;99.90;;;;;;5084680;28;20147;-84
2021/01/27 05:18:39;;;;;;;13.62;6.80;;;-0.40;99.90;;;;;;5037797;28;20093;-84
2021/01/27 05:21:29;;;;;;;13.62;6.57;;;-0.40;99.90;;;;;;5041602;28;20101;-84
2021/01/27 05:24:23;;;;;;;11.88;6.47;;;-0.40;99.90;;;;;;5067231;28;20107;-84
2021/01/27 05:27:14;;;;;;;12.45;6.55;;;-0.40;99.90;;;;;;5040820;28;20147;-84
2021/01/27 05:30:19;;;;;;;11.90;6.43;;;-0.30;99.90;;;;;;5087211;28;20096;-84
2021/01/27 05:32:58;;;;;;;13.02;7.00;;;-0.30;99.90;;;;;;5098830;28;20419;-88
2021/01/27 05:35:49;;;;;;;16.58;6.93;;;-0.30;99.90;;;;;;5082911;28;20407;-87
2021/01/27 05:38:30;;;;;;;16.23;7.10;;;-0.30;99.90;;;;;;5083695;28;20091;-87
2021/01/27 05:41:26;;;;;;;19.73;7.05;;;-0.20;99.90;;;;;;5056102;28;20505;-88
2021/01/27 05:44:10;;;;;;;15.23;7.05;;;-0.20;99.90;;;;;;4991553;28;20097;-87
2021/01/27 05:47:27;;;;;;;19.52;8.27;;;-0.10;99.90;;;;;;5030650;28;20390;-87
2021/01/27 05:50:36;;;;;;;19.80;7.78;;;-0.10;99.90;;;;;;5033541;28;20479;-87
2021/01/27 05:53:30;;;;;;;14.87;8.18;;;-0.10;99.90;;;;;;5020247;28;20109;-87
2021/01/27 05:56:16;;;;;;;14.25;6.65;;;0.00;99.90;;;;;;5101175;28;20143;-88
2021/01/27 05:59:07;;;;;;;15.98;6.75;;;0.00;99.90;;;;;;5018818;28;20103;-87
2021/01/27 06:01:47;;;;;;;51.45;13.50;;;-0.10;99.90;;;;;;5018457;28;20107;-87
2021/01/27 06:04:39;;;;;;;85.12;21.60;;;0.00;99.90;;;;;;5051868;28;20097;-87
2021/01/27 06:07:25;;;;;;;98.60;22.42;;;0.00;99.90;;;;;;5064143;28;20084;-87
2021/01/27 06:10:35;;;;;;;134.55;26.17;;;0.00;99.90;;;;;;5030813;28;20093;-87
2021/01/27 06:13:24;;;;;;;;;;;0.00;99.90;;;;;;5041549;28;20088;-88
2021/01/27 06:16:21;;;;;;;86.70;20.98;;;0.00;99.90;;;;;;5037733;28;19960;-88
2021/01/27 06:19:11;;;;;;;111.07;27.35;;;0.00;99.90;;;;;;5050172;28;20171;-87
2021/01/27 06:22:23;;;;;;;108.10;28.10;;;0.00;99.90;;;;;;5076761;28;20522;-88
2021/01/27 06:25:02;;;;;;;;;;;0.00;99.90;;;;;;5019529;28;20112;-87
2021/01/27 06:28:06;;;;;;;29.42;10.45;;;0.10;99.90;;;;;;5048400;28;20359;-88
2021/01/27 06:31:16;;;;;;;23.67;9.45;;;0.10;99.90;;;;;;5098619;28;20084;-87
2021/01/27 06:34:32;;;;;;;26.75;9.48;;;0.10;99.90;;;;;;4786735;28;20106;-89
2021/01/27 06:37:53;;;;;;;17.90;9.40;;;0.10;99.90;;;;;;5073455;28;20369;-88
2021/01/27 06:41:10;;;;;;;13.80;7.20;;;0.20;99.90;;;;;;5021831;28;20092;-89
2021/01/27 06:44:01;;;;;;;13.82;6.90;;;0.30;99.90;;;;;;5063135;28;20135;-89
2021/01/27 06:47:50;;;;;;;16.85;7.90;;;0.40;99.90;;;;;;5047249;28;20182;-89
2021/01/27 06:50:51;;;;;;;15.43;8.23;;;0.40;99.90;;;;;;5031079;28;20630;-89
2021/01/27 06:54:08;;;;;;;16.90;9.38;;;0.30;99.90;;;;;;5075850;28;20084;-89
2021/01/27 06:56:50;;;;;;;20.00;9.75;;;0.40;99.90;;;;;;5077558;28;20203;-89
2021/01/27 07:00:09;;;;;;;22.73;9.98;;;0.40;99.90;;;;;;5038271;28;20103;-89
2021/01/27 07:03:30;;;;;;;20.80;9.85;;;0.40;99.90;;;;;;5070089;28;20375;-89
2021/01/27 07:06:53;;;;;;;17.08;8.68;;;0.40;99.90;;;;;;5053377;28;20153;-89
2021/01/27 07:09:40;;;;;;;22.35;9.75;;;0.40;99.90;;;;;;5100073;28;20103;-89
2021/01/27 07:12:46;;;;;;;20.52;9.77;;;0.30;99.90;;;;;;5046330;28;20110;-89
2021/01/27 07:15:37;;;;;;;22.23;10.65;;;0.40;99.90;;;;;;5054871;28;20093;-89
2021/01/27 07:19:09;;;;;;;17.02;9.05;;;0.40;99.90;;;;;;5057104;28;20170;-89
2021/01/27 07:21:56;;;;;;;20.55;10.25;;;0.40;99.90;;;;;;5020405;28;20115;-87
2021/01/27 07:25:11;;;;;;;20.50;9.48;;;0.40;99.90;;;;;;5059152;28;20143;-89
2021/01/27 07:27:55;;;;;;;19.65;10.73;;;0.40;99.90;;;;;;5048636;28;20083;-88
2021/01/27 07:31:23;;;;;;;16.65;9.70;;;0.50;99.90;;;;;;5042591;28;20482;-89
2021/01/27 07:34:15;;;;;;;19.15;10.63;;;0.40;99.90;;;;;;5079872;28;20093;-89
2021/01/27 07:37:30;;;;;;;16.53;9.27;;;0.40;99.90;;;;;;5074801;28;20087;-88
2021/01/27 07:40:20;;;;;;;19.08;9.15;;;0.40;99.90;;;;;;5040057;28;20093;-88
2021/01/27 07:43:21;;;;;;;17.12;9.90;;;0.50;99.90;;;;;;4994547;28;20113;-85
2021/01/27 07:46:03;;;;;;;20.30;8.98;;;0.50;99.90;;;;;;5052370;28;20166;-85
2021/01/27 07:49:02;;;;;;;26.77;11.00;;;0.50;99.90;;;;;;5032824;28;20573;-85
2021/01/27 07:51:54;;;;;;;22.45;11.82;;;0.60;99.90;;;;;;5004380;28;20157;-85
2021/01/27 07:55:05;;;;;;;38.88;15.95;;;0.60;99.90;;;;;;5022215;28;20454;-85
2021/01/27 07:58:09;;;;;;;40.47;15.93;;;0.60;99.90;;;;;;5013386;28;20105;-85
2021/01/27 08:01:13;;;;;;;46.70;18.92;;;0.70;99.90;;;;;;5022901;28;20437;-84
2021/01/27 08:04:21;;;;;;;17.33;9.43;;;0.70;99.90;;;;;;5062345;28;20093;-85
2021/01/27 08:07:00;;;;;;;22.58;10.48;;;0.80;99.90;;;;;;5067113;28;20110;-85
2021/01/27 08:09:54;;;;;;;18.02;9.40;;;0.80;99.90;;;;;;5070020;28;20107;-85
2021/01/27 08:12:53;;;;;;;19.77;8.57;;;0.80;99.90;;;;;;5049126;28;20088;-85
2021/01/27 08:16:07;;;;;;;19.00;9.45;;;0.80;99.90;;;;;;5035358;28;20109;-84
2021/01/27 08:19:05;;;;;;;15.93;9.18;;;0.80;99.90;;;;;;5037591;28;20420;-85
2021/01/27 08:22:05;;;;;;;19.75;8.13;;;0.90;99.90;;;;;;5015684;28;20474;-86
2021/01/27 08:24:57;;;;;;;17.10;8.07;;;0.90;99.90;;;;;;5075333;28;20111;-85
2021/01/27 08:28:20;;;;;;;16.30;8.98;;;0.90;99.90;;;;;;5027099;28;20097;-85
2021/01/27 08:31:10;;;;;;;15.57;8.80;;;1.00;99.90;;;;;;5055558;28;20092;-85
2021/01/27 08:34:00;;;;;;;18.95;8.55;;;1.00;99.90;;;;;;5043078;28;20104;-85
2021/01/27 08:36:52;;;;;;;18.45;10.13;;;1.00;99.90;;;;;;5046213;28;20093;-86
2021/01/27 08:40:03;;;;;;;18.85;8.80;;;1.10;99.90;;;;;;5086381;28;20111;-85
2021/01/27 08:42:52;;;;;;;15.88;8.00;;;1.10;99.90;;;;;;5061458;28;20552;-85
2021/01/27 08:45:46;;;;;;;15.57;8.52;;;1.20;99.90;;;;;;5048129;28;20105;-85
2021/01/27 08:48:45;;;;;;;14.00;7.62;;;1.20;99.90;;;;;;5036197;28;20181;-86
2021/01/27 08:51:47;;;;;;;14.70;8.18;;;1.20;99.90;;;;;;5029137;28;20096;-84
2021/01/27 08:54:29;;;;;;;16.45;8.30;;;1.30;99.90;;;;;;5040704;28;20104;-85
2021/01/27 08:57:36;;;;;;;20.42;9.38;;;1.30;99.90;;;;;;5102243;28;20168;-84
2021/01/27 09:00:34;;;;;;;15.85;8.35;;;1.30;99.90;;;;;;5050048;28;20087;-85
2021/01/27 09:03:49;;;;;;;15.05;8.70;;;1.40;99.90;;;;;;5077142;28;20102;-85
2021/01/27 09:06:44;;;;;;;13.27;7.03;;;1.40;99.90;;;;;;5059888;28;20140;-85
2021/01/27 09:09:38;;;;;;;17.65;7.93;;;1.40;99.90;;;;;;5044011;28;20089;-84
2021/01/27 09:12:24;;;;;;;21.48;8.85;;;1.40;99.90;;;;;;5068431;28;20091;-84
2021/01/27 09:15:27;;;;;;;16.15;7.78;;;1.50;99.90;;;;;;5029460;28;20105;-85
2021/01/27 09:18:06;;;;;;;14.95;7.87;;;1.50;99.90;;;;;;5044578;28;20174;-84
2021/01/27 09:21:14;;;;;;;13.27;7.55;;;1.60;99.90;;;;;;5054922;28;20450;-84
2021/01/27 09:24:06;;;;;;;14.05;7.15;;;1.60;99.90;;;;;;5000088;28;20098;-84
2021/01/27 09:27:14;;;;;;;17.50;7.45;;;1.60;99.90;;;;;;5039131;28;20143;-84
2021/01/27 09:30:09;;;;;;;15.10;8.00;;;1.70;99.90;;;;;;5057540;28;20497;-83
2021/01/27 09:32:47;;;;;;;17.50;8.38;;;1.80;99.90;;;;;;5061205;28;20512;-84
2021/01/27 09:35:40;;;;;;;15.07;8.18;;;1.80;99.90;;;;;;5046595;28;20092;-84
2021/01/27 09:38:19;;;;;;;15.15;7.80;;;1.90;99.90;;;;;;5079556;28;20114;-84
2021/01/27 09:41:14;;;;;;;16.40;7.95;;;2.20;99.90;;;;;;5042071;28;20600;-84
2021/01/27 09:43:57;;;;;;;12.00;8.02;;;2.50;99.90;;;;;;5104570;28;20083;-85
2021/01/27 09:46:47;;;;;;;14.63;8.25;;;2.70;99.90;;;;;;5056494;28;20166;-85
2021/01/27 09:49:27;;;;;;;12.88;8.32;;;2.70;99.90;;;;;;5024967;28;20108;-85
2021/01/27 09:52:19;;;;;;;15.90;8.75;;;2.80;99.90;;;;;;5070360;28;20088;-85
2021/01/27 09:55:20;;;;;;;15.05;9.40;;;2.80;99.90;;;;;;5064810;28;20092;-85
2021/01/27 09:58:15;;;;;;;17.45;8.88;;;2.90;99.90;;;;;;5056133;28;20106;-85
2021/01/27 10:01:02;;;;;;;19.20;9.77;;;2.80;99.90;;;;;;5080879;28;20570;-85
2021/01/27 10:04:06;;;;;;;17.08;9.80;;;2.90;99.90;;;;;;5081041;28;20172;-85
2021/01/27 10:06:52;;;;;;;15.27;8.93;;;3.00;99.90;;;;;;5055760;28;20359;-85
2021/01/27 10:09:53;;;;;;;15.75;8.75;;;3.20;99.90;;;;;;5035247;28;20104;-86
2021/01/27 10:12:32;;;;;;;11.63;7.28;;;3.30;99.90;;;;;;5074805;28;20115;-85
2021/01/27 10:15:30;;;;;;;13.23;8.25;;;3.40;99.90;;;;;;5075305;28;20404;-86
2021/01/27 10:18:12;;;;;;;13.65;7.07;;;3.40;99.90;;;;;;5101589;28;20088;-85
2021/01/27 10:21:08;;;;;;;16.87;8.30;;;3.40;99.90;;;;;;5051946;28;20093;-86
2021/01/27 10:23:47;;;;;;;14.80;8.25;;;3.30;99.90;;;;;;5058887;28;20209;-86
2021/01/27 10:26:45;;;;;;;17.52;8.57;;;3.20;99.90;;;;;;5036641;28;20093;-86
2021/01/27 10:29:36;;;;;;;13.88;8.25;;;3.20;99.90;;;;;;5015322;28;20172;-87
2021/01/27 10:32:34;;;;;;;17.87;8.73;;;3.20;99.90;;;;;;5024617;28;20163;-86
2021/01/27 10:35:26;;;;;;;14.35;8.30;;;3.20;99.90;;;;;;5047517;28;20093;-87
2021/01/27 10:38:21;;;;;;;12.98;7.65;;;3.20;99.90;;;;;;5024121;28;20085;-86
2021/01/27 10:41:03;;;;;;;11.55;7.07;;;3.20;99.90;;;;;;5073642;28;20112;-86
2021/01/27 10:44:37;;;;;;;17.15;7.28;;;3.20;99.90;;;;;;5035750;28;20438;-89
2021/01/27 10:47:29;;;;;;;13.20;8.35;;;3.20;99.90;;;;;;5033172;28;20085;-90
2021/01/27 10:50:27;;;;;;;13.32;6.60;;;3.20;99.90;;;;;;5037703;28;20106;-90
2021/01/27 10:53:18;;;;;;;16.77;8.70;;;3.20;99.90;;;;;;5062584;28;20107;-90
2021/01/27 10:56:13;;;;;;;14.90;8.15;;;3.20;99.90;;;;;;5082026;28;20144;-91
2021/01/27 10:58:55;;;;;;;15.00;8.75;;;3.20;99.90;;;;;;5097012;28;20103;-90
2021/01/27 11:01:53;;;;;;;18.40;9.60;;;3.20;99.90;;;;;;5046777;28;20098;-90
2021/01/27 11:04:35;;;;;;;14.02;9.02;;;3.20;99.90;;;;;;5055238;28;20670;-90
2021/01/27 11:07:30;;;;;;;17.00;9.10;;;3.30;99.90;;;;;;5007145;28;20107;-90
2021/01/27 11:10:11;;;;;;;13.82;8.68;;;3.30;99.90;;;;;;5068595;28;20148;-90
2021/01/27 11:13:08;;;;;;;15.60;8.25;;;3.30;99.90;;;;;;5090164;28;20092;-89
2021/01/27 11:15:58;;;;;;;16.98;9.82;;;3.40;99.90;;;;;;5006271;28;20170;-90
2021/01/27 11:18:52;;;;;;;15.13;8.73;;;3.50;99.90;;;;;;5029640;28;20170;-90
2021/01/27 11:21:39;;;;;;;13.93;8.70;;;3.50;99.90;;;;;;5078488;28;20150;-90
2021/01/27 11:24:36;;;;;;;16.55;9.55;;;3.60;99.90;;;;;;5050541;28;20101;-90
2021/01/27 11:27:27;;;;;;;16.23;9.10;;;3.80;99.90;;;;;;5012890;28;20112;-91
2021/01/27 11:30:22;;;;;;;16.12;9.10;;;3.80;99.90;;;;;;5026695;28;20486;-90
2021/01/27 11:33:04;;;;;;;13.35;9.02;;;3.90;99.90;;;;;;5034336;28;20125;-90
2021/01/27 11:35:56;;;;;;;15.48;8.50;;;3.90;99.90;;;;;;4771732;28;20079;-90
2021/01/27 11:38:35;;;;;;;15.07;8.93;;;3.80;99.90;;;;;;5024539;28;20100;-90
2021/01/27 11:41:29;;;;;;;16.27;9.50;;;3.80;99.90;;;;;;5035075;28;20128;-90
2021/01/27 11:44:09;;;;;;;13.45;8.30;;;3.80;99.90;;;;;;5072995;28;20111;-89
2021/01/27 11:47:03;;;;;;;12.35;7.47;;;3.80;99.90;;;;;;5062360;28;20088;-90
2021/01/27 11:49:46;;;;;;;10.50;6.75;;;3.70;99.90;;;;;;5021538;28;20179;-90
2021/01/27 11:52:37;;;;;;;8.73;5.62;;;3.70;99.90;;;;;;5017904;28;20153;-90
2021/01/27 11:55:18;;;;;;;6.25;3.47;;;3.70;99.90;;;;;;5069321;28;20097;-90
2021/01/27 11:58:12;;;;;;;3.05;1.45;;;3.70;99.90;;;;;;5031603;28;20179;-89
2021/01/27 12:00:52;;;;;;;5.25;1.80;;;3.60;99.90;;;;;;5096448;28;20131;-89
2021/01/27 12:03:47;;;;;;;2.55;1.30;;;3.50;99.90;;;;;;5034896;28;20175;-89
2021/01/27 12:06:26;;;;;;;3.95;1.00;;;3.50;99.90;;;;;;5060018;28;20135;-89
2021/01/27 12:09:18;;;;;;;5.32;1.30;;;3.40;99.90;;;;;;5022696;28;20108;-89
2021/01/27 12:11:59;;;;;;;5.40;0.77;;;3.50;99.90;;;;;;5081086;28;20096;-90
2021/01/27 12:14:54;;;;;;;1.98;0.95;;;3.50;99.90;;;;;;5011881;28;20104;-89
2021/01/27 12:17:32;;;;;;;2.97;0.62;;;3.50;99.90;;;;;;5030681;28;20373;-90
2021/01/27 12:20:25;;;;;;;2.90;1.10;;;3.40;99.90;;;;;;5038672;28;20101;-90
2021/01/27 12:23:06;;;;;;;2.78;1.10;;;3.40;99.90;;;;;;5055214;28;20108;-90
2021/01/27 12:25:58;;;;;;;2.72;1.55;;;3.30;99.90;;;;;;5057844;28;20111;-89
2021/01/27 12:28:37;;;;;;;2.70;1.80;;;3.30;99.90;;;;;;5096167;28;20090;-87
2021/01/27 12:31:32;;;;;;;2.87;1.60;;;3.20;99.90;;;;;;5030268;28;20182;-86
2021/01/27 12:34:11;;;;;;;3.72;2.00;;;3.20;99.90;;;;;;5054212;28;20528;-87
2021/01/27 12:37:05;;;;;;;6.37;2.80;;;3.20;99.90;;;;;;5038976;28;20101;-88
2021/01/27 12:39:47;;;;;;;7.28;3.42;;;3.20;99.90;;;;;;5027386;28;20174;-87
2021/01/27 12:42:41;;;;;;;8.43;4.25;;;3.20;99.90;;;;;;5080241;28;20114;-87
2021/01/27 12:45:22;;;;;;;7.85;3.83;;;3.30;99.90;;;;;;5045143;28;20831;-87
2021/01/27 12:48:18;;;;;;;6.95;3.28;;;3.30;99.90;;;;;;5027141;28;20174;-86
2021/01/27 12:50:58;;;;;;;7.37;4.37;;;3.30;99.90;;;;;;5003957;28;20144;-87
2021/01/27 12:53:52;;;;;;;6.07;3.35;;;3.30;99.90;;;;;;5001869;28;20177;-87
2021/01/27 12:56:31;;;;;;;5.25;2.90;;;3.30;99.90;;;;;;5058410;28;20136;-87
2021/01/27 12:59:25;;;;;;;7.12;3.60;;;3.30;99.90;;;;;;5004726;28;20499;-87
2021/01/27 13:02:05;;;;;;;5.87;2.40;;;3.20;99.90;;;;;;5053155;28;20103;-87
2021/01/27 13:04:57;;;;;;;5.97;3.08;;;3.20;99.90;;;;;;5062195;28;20096;-87
2021/01/27 13:07:36;;;;;;;3.87;2.22;;;3.20;99.90;;;;;;5110505;28;20095;-87
2021/01/27 13:10:27;;;;;;;4.45;2.40;;;3.10;99.90;;;;;;5046973;28;20093;-90
2021/01/27 13:13:10;;;;;;;5.82;3.03;;;3.10;99.90;;;;;;5024586;28;20152;-86
2021/01/27 13:16:02;;;;;;;6.35;3.00;;;3.10;99.90;;;;;;5038192;28;20102;-85
2021/01/27 13:18:41;;;;;;;6.85;2.87;;;3.00;99.90;;;;;;5038246;28;20403;-85
2021/01/27 13:21:38;;;;;;;6.20;2.67;;;3.00;99.90;;;;;;5018387;28;20510;-88
2021/01/27 13:24:21;;;;;;;5.37;2.22;;;3.00;99.90;;;;;;4999434;28;20161;-87
2021/01/27 13:27:13;;;;;;;7.15;3.10;;;3.00;99.90;;;;;;5019878;28;20093;-86
2021/01/27 13:29:56;;;;;;;7.05;2.58;;;3.10;99.90;;;;;;5060836;28;20088;-86
2021/01/27 13:32:51;;;;;;;6.20;2.10;;;3.00;99.90;;;;;;5091182;28;20092;-89
2021/01/27 13:35:29;;;;;;;5.40;1.80;;;3.10;99.90;;;;;;5074149;28;20137;-87
2021/01/27 13:38:26;;;;;;;6.68;3.03;;;3.10;99.90;;;;;;5019515;28;20107;-86
2021/01/27 13:41:21;;;;;;;6.10;2.03;;;3.10;99.90;;;;;;5045935;28;20092;-86
2021/01/27 13:44:13;;;;;;;4.05;1.50;;;3.10;99.90;;;;;;5020855;28;20363;-86
2021/01/27 13:46:55;;;;;;;5.68;1.62;;;3.10;99.90;;;;;;5024847;28;20174;-86
2021/01/27 13:49:49;;;;;;;9.40;3.00;;;3.20;99.90;;;;;;5054719;28;20088;-86
2021/01/27 13:52:28;;;;;;;3.25;1.52;;;3.20;99.90;;;;;;5040718;28;20136;-86
2021/01/27 13:55:20;;;;;;;6.00;2.50;;;3.20;99.90;;;;;;5010645;28;20111;-86
2021/01/27 13:57:59;;;;;;;5.12;2.87;;;3.30;99.90;;;;;;5071102;28;20116;-86
2021/01/27 14:00:51;;;;;;;6.57;3.08;;;3.30;99.90;;;;;;5038418;28;20100;-86
2021/01/27 14:03:46;;;;;;;15.05;7.70;;;3.30;99.90;;;;;;5035777;28;20099;-86
2021/01/27 14:06:29;;;;;;;7.28;3.47;;;3.40;99.90;;;;;;5000090;28;20137;-87
2021/01/27 14:09:20;;;;;;;6.82;3.28;;;3.40;99.90;;;;;;5023048;28;20426;-86
2021/01/27 14:12:02;;;;;;;9.60;4.35;;;3.40;99.90;;;;;;5052599;28;20187;-87
2021/01/27 14:14:55;;;;;;;6.60;3.47;;;3.40;99.90;;;;;;5018964;28;20133;-86
2021/01/27 14:17:33;;;;;;;7.72;3.50;;;3.40;99.90;;;;;;5078398;28;20111;-87
2021/01/27 14:20:25;;;;;;;5.75;3.42;;;3.40;99.90;;;;;;5016221;28;20174;-86
2021/01/27 14:23:04;;;;;;;6.90;3.85;;;3.40;99.90;;;;;;5108841;28;20124;-87
2021/01/27 14:25:55;;;;;;;6.80;3.92;;;3.40;99.90;;;;;;5046326;28;20137;-87
2021/01/27 14:28:35;;;;;;;8.75;4.57;;;3.30;99.90;;;;;;5060803;28;20158;-86
2021/01/27 14:31:26;;;;;;;7.15;3.40;;;3.30;99.90;;;;;;5054803;28;20162;-85
2021/01/27 14:34:06;;;;;;;7.18;4.03;;;3.20;99.90;;;;;;5088018;28;20092;-86
2021/01/27 14:36:59;;;;;;;8.05;3.60;;;3.20;99.90;;;;;;5058686;28;20098;-86
2021/01/27 14:39:38;;;;;;;9.20;3.00;;;3.20;99.90;;;;;;5090420;28;20092;-86
2021/01/27 14:42:30;;;;;;;6.20;2.90;;;3.20;99.90;;;;;;5049227;28;20085;-86
2021/01/27 14:45:10;;;;;;;10.32;3.90;;;3.10;99.90;;;;;;5079875;28;20138;-87
2021/01/27 14:48:07;;;;;;;9.05;4.28;;;3.10;99.90;;;;;;5044767;28;20115;-86
2021/01/27 14:50:45;;;;;;;70.35;24.87;;;3.10;99.90;;;;;;5029144;28;20084;-85
2021/01/27 14:53:37;;;;;;;11.45;6.37;;;3.10;99.90;;;;;;4998653;28;20145;-86